Weather History for KTQH - March, 2013

Change the Weather History Date:

Monday, March 25, 2013

  Actual Average (KMKO) Record (KMKO)
Temperature  
Mean Temperature 30 °F -  
Max Temperature 35 °F 63 °F 84 °F (2015)
Min Temperature 26 °F 41 °F 25 °F (2013)
Degree Days  
Heating Degree Days 34    
Moisture  
Dew Point 22 °F    
Average Humidity 70    
Maximum Humidity 86    
Minimum Humidity 60    
Precipitation  
Precipitation 0.00 in - - ()
Sea Level Pressure  
Sea Level Pressure 30.27 in    
Wind  
Wind Speed 10 mph (NW)    
Max Wind Speed 21 mph    
Max Gust Speed 29 mph    
Visibility 10 miles    
Events      
Averages and records for this station are not official NWS values.
T = Trace of Precipitation, MM = Missing Value Source: NWS Daily Summary

Daily Weather History Graph

Daily Weather History Graph

Search for Another Location

Airport or City:

Trip Planner

Search our weather history database for the weather conditions in past years. The results will help you decide how hot, cold, wet, or windy it might be!

Date:

Astronomy

Mar. 25, 2013 Rise Set
Actual Time 7:16 AM CDT 7:36 PM CDT
Civil Twilight 6:50 AM CDT 8:01 PM CDT
Nautical Twilight 6:20 AM CDT 8:31 PM CDT
Astronomical Twilight 5:49 AM CDT 9:02 PM CDT
Moon 6:10 PM CDT (3/25) 5:57 AM CDT (3/25)
Length of Visible Light 13h 11m
Length of Day
12h 20m
Waxing Gibbous, 96% of the Moon is Illuminated
Mar 25
Waxing Gibbous
Mar 27
Full
Apr 2
Last Quarter
Apr 10
New
Apr 18
First Quarter

Hourly Weather History & Observations

Time (CDT) Temp. Windchill Dew Point Humidity Pressure Visibility Wind Dir Wind Speed Gust Speed Precip Events Conditions
12:15 AM 26.6 °F 21.2 °F 21.2 °F 80% 30.16 in 10.0 mi West 4.6 mph - N/A   Clear
12:35 AM 26.6 °F 19.1 °F 21.2 °F 80% 30.16 in 10.0 mi West 6.9 mph - N/A   Clear
12:55 AM 26.6 °F 21.2 °F 21.2 °F 80% 30.17 in 10.0 mi WNW 4.6 mph - N/A   Clear
1:15 AM 28.4 °F 20.4 °F 21.2 °F 74% 30.17 in 10.0 mi WNW 8.1 mph - N/A   Clear
1:55 AM 26.6 °F 20.0 °F 21.2 °F 80% 30.17 in 10.0 mi WNW 5.8 mph - N/A   Clear
2:15 AM 26.6 °F 19.1 °F 21.2 °F 80% 30.17 in 10.0 mi WNW 6.9 mph - N/A   Clear
2:35 AM 26.6 °F 19.1 °F 21.2 °F 80% 30.17 in 10.0 mi WNW 6.9 mph - N/A   Clear
2:55 AM 26.6 °F 20.0 °F 21.2 °F 80% 30.17 in 10.0 mi WNW 5.8 mph - N/A   Clear
3:15 AM 26.6 °F 19.1 °F 21.2 °F 80% 30.16 in 10.0 mi WNW 6.9 mph - N/A   Scattered Clouds
3:35 AM 28.4 °F 21.2 °F 21.2 °F 74% 30.16 in 10.0 mi WNW 6.9 mph - N/A   Scattered Clouds
3:55 AM 26.6 °F 19.1 °F 21.2 °F 80% 30.15 in 10.0 mi NW 6.9 mph - N/A   Scattered Clouds
4:15 AM 28.4 °F 20.4 °F 21.2 °F 74% 30.15 in 10.0 mi WNW 8.1 mph - N/A   Clear
4:35 AM 28.4 °F 19.1 °F 23.0 °F 80% 30.15 in 10.0 mi WNW 10.4 mph - N/A   Clear
4:55 AM 28.4 °F 19.1 °F 23.0 °F 80% 30.16 in 10.0 mi WNW 10.4 mph - N/A   Clear
5:15 AM 28.4 °F 19.1 °F 23.0 °F 80% 30.16 in 10.0 mi WNW 10.4 mph - N/A   Clear
5:35 AM 26.6 °F 17.5 °F 23.0 °F 86% 30.17 in 10.0 mi WNW 9.2 mph - N/A   Clear
5:55 AM 26.6 °F 17.5 °F 23.0 °F 86% 30.17 in 10.0 mi WNW 9.2 mph - N/A   Clear
6:15 AM 26.6 °F 17.5 °F 23.0 °F 86% 30.17 in 10.0 mi NW 9.2 mph - N/A   Clear
6:35 AM 26.6 °F 17.5 °F 21.2 °F 80% 30.18 in 10.0 mi WNW 9.2 mph 16.1 mph N/A   Clear
6:55 AM 26.6 °F 18.2 °F 21.2 °F 80% 30.18 in 10.0 mi NW 8.1 mph - N/A   Clear
7:15 AM 26.6 °F 19.1 °F 21.2 °F 80% 30.20 in 10.0 mi WNW 6.9 mph - N/A   Scattered Clouds
7:35 AM 26.6 °F 15.7 °F 21.2 °F 80% 30.21 in 10.0 mi WNW 12.7 mph 16.1 mph N/A   Scattered Clouds
7:55 AM 26.6 °F 16.2 °F 21.2 °F 80% 30.22 in 10.0 mi NW 11.5 mph 16.1 mph N/A   Clear
8:15 AM 28.4 °F 18.5 °F 21.2 °F 74% 30.23 in 10.0 mi NW 11.5 mph - N/A   Scattered Clouds
8:55 AM 30.2 °F 19.3 °F 21.2 °F 69% 30.25 in 10.0 mi NW 15.0 mph 24.2 mph N/A   Scattered Clouds
9:15 AM 30.2 °F 19.3 °F 21.2 °F 69% 30.25 in 10.0 mi NW 15.0 mph 20.7 mph N/A   Mostly Cloudy
9:35 AM 30.2 °F 18.5 °F 21.2 °F 69% 30.26 in 10.0 mi NW 17.3 mph - N/A   Mostly Cloudy
9:55 AM 30.2 °F 17.4 °F 21.2 °F 69% 30.27 in 10.0 mi NNW 20.7 mph 27.6 mph N/A   Overcast
10:15 AM 30.2 °F 18.1 °F 21.2 °F 69% 30.28 in 10.0 mi NW 18.4 mph 28.8 mph N/A   Overcast
10:35 AM 30.2 °F 18.9 °F 21.2 °F 69% 30.29 in 10.0 mi NW 16.1 mph 24.2 mph N/A   Overcast
10:55 AM 30.2 °F 19.8 °F 21.2 °F 69% 30.29 in 10.0 mi NW 13.8 mph 24.2 mph N/A   Overcast
11:15 AM 32.0 °F 20.8 °F 21.2 °F 64% 30.30 in 10.0 mi NW 17.3 mph 25.3 mph N/A   Overcast
11:35 AM 32.0 °F 20.1 °F 21.2 °F 64% 30.31 in 10.0 mi NW 19.6 mph 24.2 mph N/A   Overcast
11:55 AM 32.0 °F 21.6 °F 23.0 °F 69% 30.31 in 10.0 mi NW 15.0 mph 23.0 mph N/A   Overcast
12:15 PM 32.0 °F 21.6 °F 23.0 °F 69% 30.32 in 10.0 mi NW 15.0 mph - N/A   Overcast
12:35 PM 32.0 °F 21.6 °F 23.0 °F 69% 30.31 in 10.0 mi NW 15.0 mph - N/A   Overcast
12:55 PM 32.0 °F 21.2 °F 23.0 °F 69% 30.31 in 10.0 mi NW 16.1 mph 21.9 mph N/A   Overcast
1:15 PM 32.0 °F 22.1 °F 23.0 °F 69% 30.32 in 10.0 mi NW 13.8 mph 21.9 mph N/A   Overcast
1:35 PM 32.0 °F 23.0 °F 23.0 °F 69% 30.31 in 10.0 mi WNW 11.5 mph 18.4 mph N/A   Overcast
1:55 PM 32.0 °F 22.1 °F 23.0 °F 69% 30.31 in 10.0 mi NW 13.8 mph - N/A   Overcast
2:15 PM 33.8 °F 24.8 °F 23.0 °F 65% 30.31 in 10.0 mi NW 12.7 mph 19.6 mph N/A   Mostly Cloudy
2:35 PM 33.8 °F 23.9 °F 23.0 °F 65% 30.31 in 10.0 mi WNW 15.0 mph - N/A   Mostly Cloudy
2:55 PM 33.8 °F 24.8 °F 23.0 °F 65% 30.31 in 10.0 mi WNW 12.7 mph - N/A   Mostly Cloudy
3:15 PM 33.8 °F 25.3 °F 23.0 °F 65% 30.31 in 10.0 mi WNW 11.5 mph 18.4 mph N/A   Mostly Cloudy
3:35 PM 33.8 °F 24.3 °F 23.0 °F 65% 30.31 in 10.0 mi WNW 13.8 mph 17.3 mph N/A   Mostly Cloudy
3:55 PM 35.6 °F 27.5 °F 23.0 °F 60% 30.30 in 10.0 mi NW 11.5 mph - N/A   Scattered Clouds
4:15 PM 35.6 °F 26.6 °F 23.0 °F 60% 30.30 in 10.0 mi WNW 13.8 mph 17.3 mph N/A   Scattered Clouds
4:35 PM 35.6 °F 27.1 °F 23.0 °F 60% 30.29 in 10.0 mi WNW 12.7 mph - N/A   Scattered Clouds
4:55 PM 35.6 °F 26.6 °F 23.0 °F 60% 30.30 in 10.0 mi NW 13.8 mph 21.9 mph N/A   Scattered Clouds
5:15 PM 35.6 °F 25.9 °F 23.0 °F 60% 30.29 in 10.0 mi WNW 16.1 mph - N/A   Scattered Clouds
5:35 PM 35.6 °F 26.2 °F 23.0 °F 60% 30.29 in 10.0 mi NW 15.0 mph 19.6 mph N/A   Scattered Clouds
5:55 PM 35.6 °F 28.6 °F 23.0 °F 60% 30.29 in 10.0 mi NW 9.2 mph - N/A   Mostly Cloudy
6:15 PM 35.6 °F 26.6 °F 23.0 °F 60% 30.29 in 10.0 mi WNW 13.8 mph 18.4 mph N/A   Mostly Cloudy
6:35 PM 33.8 °F 25.3 °F 21.2 °F 60% 30.30 in 10.0 mi NW 11.5 mph 19.6 mph N/A   Scattered Clouds
6:55 PM 33.8 °F 24.8 °F 21.2 °F 60% 30.31 in 10.0 mi NNW 12.7 mph 19.6 mph N/A   Clear
7:15 PM 33.8 °F 24.3 °F 21.2 °F 60% 30.31 in 10.0 mi NNW 13.8 mph 21.9 mph N/A   Scattered Clouds
7:35 PM 33.8 °F 24.3 °F 21.2 °F 60% 30.32 in 10.0 mi NNW 13.8 mph 17.3 mph N/A   Mostly Cloudy
7:55 PM 32.0 °F 22.1 °F 21.2 °F 64% 30.33 in 10.0 mi NW 13.8 mph 19.6 mph N/A   Mostly Cloudy
8:15 PM 32.0 °F 24.2 °F 19.4 °F 60% 30.33 in 10.0 mi NW 9.2 mph - N/A   Mostly Cloudy
8:35 PM 32.0 °F 24.8 °F 19.4 °F 60% 30.34 in 10.0 mi NW 8.1 mph - N/A   Mostly Cloudy
8:55 PM 32.0 °F 24.8 °F 19.4 °F 60% 30.34 in 10.0 mi NNW 8.1 mph - N/A   Mostly Cloudy
9:15 PM 32.0 °F 24.2 °F 21.2 °F 64% 30.35 in 10.0 mi NW 9.2 mph - N/A   Overcast
9:35 PM 32.0 °F 23.6 °F 21.2 °F 64% 30.36 in 10.0 mi NW 10.4 mph - N/A   Mostly Cloudy
9:55 PM 32.0 °F 24.2 °F 21.2 °F 64% 30.36 in 10.0 mi NNW 9.2 mph - N/A   Mostly Cloudy
10:15 PM 32.0 °F 25.6 °F 21.2 °F 64% 30.37 in 10.0 mi NW 6.9 mph - N/A   Overcast
10:35 PM 32.0 °F 26.4 °F 21.2 °F 64% 30.37 in 10.0 mi NW 5.8 mph - N/A   Mostly Cloudy
10:55 PM 30.2 °F 25.4 °F 21.2 °F 69% 30.37 in 10.0 mi NW 4.6 mph - N/A   Mostly Cloudy
11:15 PM 30.2 °F 25.4 °F 21.2 °F 69% 30.37 in 10.0 mi NW 4.6 mph - N/A   Scattered Clouds
11:35 PM 28.4 °F 23.3 °F 21.2 °F 74% 30.38 in 10.0 mi NW 4.6 mph - N/A   Clear
11:55 PM 28.4 °F 24.6 °F 21.2 °F 74% 30.38 in 10.0 mi NW 3.5 mph - N/A   Clear